Springdale, Texas
Current Conditions -  °F | °C
As of 1:53 AM on Saturday 25 Oct 2014 (Local Time) from KTXK Reporting Station
Clear Clear  
Wind Chill: 60°   Ceiling: Unl
Heat Index: 60°   Visibility: 9mi
Dew Point: 57°   Wind: 5mph
Humidity: 90%   Direction: 200°SSW
Pressure: 30.12"   Gusts: NA
Location:  33.2185°N, 94.1365°W
Report Text: KTXK 250653Z AUTO 20004KT 9SM CLR 16/14 A3012 RMK AO2 SLP197 T01560139
Loading
Personal Weather Stations






























Interactive Weather Map
Tropical Storm Tracking
New forecast layout! Learn more

10-Day Weather Forecast

Advertisements
Track Severe Weather on mobile